Time;durP1;ratioP1;P1;durP2;ratioP2;P2;SDS_P1;SDS_P2;PMS_P1;PMS_P2;Temp;Humidity;BMP_temperature;BMP_pressure;BME280_temperature;BME280_humidity;BME280_pressure;Samples;Min_cycle;Max_cycle;Signal;HPM_P1;HPM_P2
2023/09/28 00:01:22;;;;;;;;;;;;;;;18.19;83.84;101228.91;5081198;28;1098;-78
2023/09/28 00:03:47;;;;;;;;;;;;;;;18.19;84.00;101220.22;5087834;28;1093;-80
2023/09/28 00:06:12;;;;;;;;;;;;;;;18.17;83.86;101223.00;5086281;28;1090;-79
2023/09/28 00:08:38;;;;;;;;;;;;;;;18.17;83.87;101235.28;5078700;28;2236;-79
2023/09/28 00:11:06;;;;;;;;;;;;;;;18.14;83.99;101239.09;5078793;28;1251;-80
2023/09/28 00:13:31;;;;;;;;;;;;;;;18.15;84.03;101239.91;5077429;28;1182;-79
2023/09/28 00:15:57;;;;;;;;;;;;;;;18.15;83.95;101250.41;5077911;28;1227;-79
2023/09/28 00:18:23;;;;;;;;;;;;;;;18.14;83.79;101248.78;5077593;28;1612;-79
2023/09/28 00:20:48;;;;;;;;;;;;;;;18.12;83.94;101261.22;5073359;28;1013;-79
2023/09/28 00:23:14;;;;;;;;;;;;;;;18.10;83.94;101269.25;5079004;28;1397;-79
2023/09/28 00:25:39;;;;;;;;;;;;;;;18.08;84.09;101271.25;5072771;28;1132;-79
2023/09/28 00:28:05;;;;;;;;;;;;;;;18.06;84.02;101273.19;5069961;28;1612;-79
2023/09/28 00:30:31;;;;;;;;;;;;;;;18.03;84.04;101274.34;5067703;28;2019;-78
2023/09/28 00:32:56;;;;;;;;;;;;;;;18.01;84.13;101276.34;5078410;28;1152;-79
2023/09/28 00:35:22;;;;;;;;;;;;;;;17.98;84.33;101281.88;5093118;28;1428;-79
2023/09/28 00:37:48;;;;;;;;;;;;;;;17.98;84.36;101286.31;5092657;28;1534;-78
2023/09/28 00:42:42;;;;;;;;;;;;;;;17.96;84.41;101278.63;5091404;28;1336;-78
2023/09/28 00:45:07;;;;;;;;;;;;;;;17.93;84.59;101267.63;5079741;28;1202;-79
2023/09/28 00:47:33;;;;;;;;;;;;;;;17.93;84.61;101270.22;5083732;28;1219;-79
2023/09/28 00:49:59;;;;;;;;;;;;;;;17.91;84.63;101269.59;5085727;28;1957;-78
2023/09/28 00:52:24;;;;;;;;;;;;;;;17.90;84.59;101263.53;5085322;28;1369;-78
2023/09/28 00:54:50;;;;;;;;;;;;;;;17.90;84.73;101263.53;5096172;28;1162;-79
2023/09/28 00:57:15;;;;;;;;;;;;;;;17.90;84.67;101271.41;5081161;28;1210;-79
2023/09/28 00:59:41;;;;;;;;;;;;;;;17.91;84.74;101264.34;5077744;28;1257;-79
2023/09/28 01:02:09;;;;;;;;;;;;;;;17.90;84.57;101263.53;5081710;28;1614;-79
2023/09/28 01:04:38;;;;;;;;;;;;;;;17.91;84.64;101262.53;5085804;28;1288;-79
2023/09/28 01:07:04;;;;;;;;;;;;;;;17.93;84.84;101262.38;5088525;28;1271;-79
2023/09/28 01:09:29;;;;;;;;;;;;;;;17.92;84.80;101266.78;5084213;28;1937;-79
2023/09/28 01:11:55;;;;;;;;;;;;;;;17.91;84.63;101280.91;5093630;28;1117;-79
2023/09/28 01:14:21;;;;;;;;;;;;;;;17.92;84.57;101281.72;5089175;28;976;-80
2023/09/28 01:16:46;;;;;;;;;;;;;;;17.90;84.83;101268.78;5084823;28;1273;-79
2023/09/28 01:19:11;;;;;;;;;;;;;;;17.90;84.95;101274.03;5086005;28;950;-79
2023/09/28 01:21:37;;;;;;;;;;;;;;;17.90;84.74;101270.56;5080943;28;1181;-79
2023/09/28 01:24:02;;;;;;;;;;;;;;;17.89;84.86;101276.78;5086738;28;1185;-79
2023/09/28 01:26:30;;;;;;;;;;;;;;;17.88;84.85;101278.59;5082139;28;1269;-80
2023/09/28 01:28:56;;;;;;;;;;;;;;;17.88;84.98;101278.59;5084265;28;1894;-80
2023/09/28 01:31:21;;;;;;;;;;;;;;;17.88;85.33;101283.84;5075296;28;1290;-79
2023/09/28 01:33:46;;;;;;;;;;;;;;;17.85;85.01;101276.31;5081799;28;1230;-78
2023/09/28 01:36:12;;;;;;;;;;;;;;;17.83;85.35;101262.50;5071493;28;1326;-79
2023/09/28 01:38:39;;;;;;;;;;;;;;;17.83;85.21;101266.94;5086645;28;1317;-79
2023/09/28 01:41:05;;;;;;;;;;;;;;;17.81;85.20;101267.09;5089519;28;1249;-79
2023/09/28 01:43:30;;;;;;;;;;;;;;;17.80;85.32;101277.78;5086480;28;1250;-79
2023/09/28 01:45:55;;;;;;;;;;;;;;;17.76;85.59;101282.50;5091359;28;1567;-79
2023/09/28 01:48:21;;;;;;;;;;;;;;;17.76;85.67;101282.50;5093283;28;1894;-78
2023/09/28 01:50:46;;;;;;;;;;;;;;;17.75;85.87;101291.38;5090809;28;1554;-78
2023/09/28 01:53:11;;;;;;;;;;;;;;;17.73;85.71;101293.34;5078941;28;1250;-79
2023/09/28 01:55:36;;;;;;;;;;;;;;;17.72;85.84;101289.03;5091890;28;1123;-79
2023/09/28 01:58:03;;;;;;;;;;;;;;;17.70;85.94;101296.25;5092845;28;1742;-79
2023/09/28 02:00:29;;;;;;;;;;;;;;;17.69;85.96;101297.22;5092246;28;1616;-79
2023/09/28 02:02:55;;;;;;;;;;;;;;;17.68;86.05;101306.91;5085497;28;1300;-80
2023/09/28 02:05:29;;;;;;;;;;;;;;;17.65;86.33;101301.13;5087892;28;1209;-80
2023/09/28 02:07:54;;;;;;;;;;;;;;;17.63;86.22;101309.19;5085061;28;1289;-79
2023/09/28 02:10:19;;;;;;;;;;;;;;;17.60;86.41;101299.00;5085403;28;1898;-80
2023/09/28 02:12:45;;;;;;;;;;;;;;;17.60;86.49;101303.41;5088032;28;1302;-78
2023/09/28 02:15:10;;;;;;;;;;;;;;;17.59;86.67;101313.09;5088367;28;1226;-78
2023/09/28 02:17:36;;;;;;;;;;;;;;;17.57;86.57;101314.25;5091171;28;1218;-78
2023/09/28 02:20:04;;;;;;;;;;;;;;;17.56;86.82;101307.34;5091012;28;1242;-79
2023/09/28 02:22:29;;;;;;;;;;;;;;;17.53;86.84;101317.16;5080620;28;1584;-79
2023/09/28 02:24:54;;;;;;;;;;;;;;;17.51;86.79;101311.25;5077971;28;1667;-79
2023/09/28 02:27:22;;;;;;;;;;;;;;;17.50;87.13;101304.38;5086826;28;1626;-79
2023/09/28 02:29:48;;;;;;;;;;;;;;;17.48;87.18;101301.06;5090093;28;1926;-79
2023/09/28 02:32:13;;;;;;;;;;;;;;;17.47;87.19;101302.06;5090623;28;1340;-79
2023/09/28 02:34:39;;;;;;;;;;;;;;;17.46;87.33;101303.06;5083224;28;1704;-79
2023/09/28 02:37:05;;;;;;;;;;;;;;;17.44;87.25;101305.03;5084366;28;2052;-78
2023/09/28 02:39:33;;;;;;;;;;;;;;;17.43;87.33;101308.63;5085359;28;1198;-79
2023/09/28 02:41:58;;;;;;;;;;;;;;;17.41;87.63;101307.94;5084898;28;1282;-77
2023/09/28 02:44:23;;;;;;;;;;;;;;;17.38;87.65;101310.91;5075817;28;1215;-79
2023/09/28 02:46:50;;;;;;;;;;;;;;;17.36;87.50;101317.25;5079198;28;1492;-79
2023/09/28 02:49:15;;;;;;;;;;;;;;;17.33;87.57;101321.03;5086594;28;1971;-79
2023/09/28 02:51:42;;;;;;;;;;;;;;;17.32;87.70;101322.03;5082768;28;1388;-78
2023/09/28 02:54:08;;;;;;;;;;;;;;;17.25;87.84;101321.78;5087998;28;1293;-80
2023/09/28 02:56:33;;;;;;;;;;;;;;;17.22;87.64;101321.31;5081436;28;1242;-78
2023/09/28 02:58:59;;;;;;;;;;;;;;;17.18;87.79;101325.22;5082823;28;1437;-78
2023/09/28 03:01:26;;;;;;;;;;;;;;;17.14;88.09;101334.34;5088515;28;1319;-79
2023/09/28 03:03:53;;;;;;;;;;;;;;;17.11;87.90;101318.94;5085300;28;1326;-79
2023/09/28 03:06:20;;;;;;;;;;;;;;;17.09;88.11;101320.88;5099244;28;1381;-77
2023/09/28 03:08:45;;;;;;;;;;;;;;;17.07;88.31;101320.22;5117469;28;1925;-76
2023/09/28 03:11:12;;;;;;;;;;;;;;;17.07;88.36;101330.72;5106439;28;1126;-77
2023/09/28 03:13:39;;;;;;;;;;;;;;;17.04;88.54;101323.19;5098890;28;1139;-78
2023/09/28 03:16:04;;;;;;;;;;;;;;;17.02;88.80;101335.59;5102930;28;1294;-77
2023/09/28 03:18:29;;;;;;;;;;;;;;;17.00;88.76;101330.53;5111060;28;1093;-78
2023/09/28 03:20:55;;;;;;;;;;;;;;;16.99;88.93;101337.56;5103125;28;1163;-77
2023/09/28 03:23:20;;;;;;;;;;;;;;;16.98;88.90;101341.16;5111342;28;1117;-77
2023/09/28 03:25:45;;;;;;;;;;;;;;;16.98;89.11;101341.16;5112541;28;1131;-76
2023/09/28 03:28:11;;;;;;;;;;;;;;;16.96;89.46;101348.34;5105763;28;1092;-76
2023/09/28 03:30:37;;;;;;;;;;;;;;;16.95;89.86;101359.78;5107409;28;1874;-77
2023/09/28 03:33:02;;;;;;;;;;;;;;;16.93;89.71;101355.69;5111494;28;1234;-78
2023/09/28 03:35:27;;;;;;;;;;;;;;;16.92;89.84;101347.03;5112781;28;1231;-76
2023/09/28 03:37:58;;;;;;;;;;;;;;;16.90;90.26;101348.13;5106303;28;1225;-78
2023/09/28 03:40:23;;;;;;;;;;;;;;;16.90;90.23;101359.44;5105057;28;1259;-78
2023/09/28 03:42:49;;;;;;;;;;;;;;;16.88;90.11;101364.00;5099873;28;1166;-79
2023/09/28 03:45:15;;;;;;;;;;;;;;;16.90;90.55;101369.09;5097772;28;1278;-79
2023/09/28 03:47:41;;;;;;;;;;;;;;;16.87;90.54;101369.41;5090624;28;1289;-79
2023/09/28 03:50:08;;;;;;;;;;;;;;;16.86;90.89;101372.97;5086712;28;1894;-79
2023/09/28 03:52:39;;;;;;;;;;;;;;;16.86;90.59;101394.78;5084451;28;1336;-79
2023/09/28 03:55:08;;;;;;;;;;;;;;;16.83;90.27;101389.84;5087736;28;1355;-79
2023/09/28 03:57:33;;;;;;;;;;;;;;;16.79;90.92;101393.72;5088186;28;1458;-79
2023/09/28 03:59:58;;;;;;;;;;;;;;;16.77;90.62;101394.88;5088875;28;1324;-79
2023/09/28 04:02:27;;;;;;;;;;;;;;;16.76;90.86;101388.81;5089369;28;1352;-79
2023/09/28 04:04:52;;;;;;;;;;;;;;;16.74;91.12;101395.97;5088622;28;1233;-79
2023/09/28 04:07:18;;;;;;;;;;;;;;;16.73;91.12;101399.59;5082815;28;1419;-77
2023/09/28 04:09:43;;;;;;;;;;;;;;;16.74;91.59;101380.25;5091123;28;1886;-80
2023/09/28 04:12:08;;;;;;;;;;;;;;;16.74;91.42;101380.25;5084092;28;1272;-79
2023/09/28 04:14:33;;;;;;;;;;;;;;;16.73;91.56;101389.09;5090080;28;1456;-79
2023/09/28 04:16:58;;;;;;;;;;;;;;;16.71;91.71;101391.06;5084900;28;1320;-78
2023/09/28 04:19:23;;;;;;;;;;;;;;;16.69;91.56;101385.94;5072001;28;1530;-79
2023/09/28 04:21:49;;;;;;;;;;;;;;;16.69;91.73;101378.09;5084329;28;1288;-79
2023/09/28 04:24:14;;;;;;;;;;;;;;;16.68;91.83;101393.94;5086215;28;1250;-79
2023/09/28 04:26:40;;;;;;;;;;;;;;;16.67;91.69;101394.91;5082436;28;1171;-79
2023/09/28 04:29:05;;;;;;;;;;;;;;;16.65;92.37;101400.31;5096282;28;2287;-79
2023/09/28 04:31:30;;;;;;;;;;;;;;;16.63;92.14;101396.19;5083955;28;1218;-78
2023/09/28 04:33:57;;;;;;;;;;;;;;;16.62;92.36;101402.41;5088562;28;1208;-78
2023/09/28 04:36:22;;;;;;;;;;;;;;;16.62;92.24;101394.53;5090126;28;1073;-78
2023/09/28 04:38:49;;;;;;;;;;;;;;;16.60;92.13;101394.69;5092031;28;1197;-79
2023/09/28 04:41:14;;;;;;;;;;;;;;;16.58;92.18;101393.22;5088056;28;1326;-79
2023/09/28 04:43:40;;;;;;;;;;;;;;;16.55;91.98;101402.19;5083474;28;1149;-79
2023/09/28 04:46:07;;;;;;;;;;;;;;;16.54;92.43;101410.19;5084837;28;1218;-79
2023/09/28 04:48:32;;;;;;;;;;;;;;;16.48;92.08;101414.22;5090997;28;1959;-77
2023/09/28 04:50:57;;;;;;;;;;;;;;;16.42;92.65;101410.41;5086834;28;1294;-78
2023/09/28 04:53:23;;;;;;;;;;;;;;;16.38;92.77;101406.44;5084209;28;1132;-78
2023/09/28 04:55:48;;;;;;;;;;;;;;;16.36;92.79;101415.44;5080747;28;1193;-78
2023/09/28 04:58:13;;;;;;;;;;;;;;;16.30;92.94;101414.22;5082559;28;1404;-78
2023/09/28 05:00:38;;;;;;;;;;;;;;;16.27;92.71;101414.50;5085405;28;1278;-78
2023/09/28 05:03:04;;;;;;;;;;;;;;;16.26;92.67;101422.50;5087891;28;1083;-79
2023/09/28 05:05:30;;;;;;;;;;;;;;;16.24;93.06;101434.94;5094336;28;1093;-79
2023/09/28 05:07:55;;;;;;;;;;;;;;;16.18;93.21;101441.59;5092090;28;1116;-78
2023/09/28 05:10:20;;;;;;;;;;;;;;;16.16;92.79;101443.50;5094299;28;1977;-78
2023/09/28 05:12:45;;;;;;;;;;;;;;;16.11;93.04;101443.09;5091367;28;1088;-79
2023/09/28 05:15:11;;;;;;;;;;;;;;;16.05;93.19;101446.31;5091142;28;1268;-79
2023/09/28 05:17:36;;;;;;;;;;;;;;;16.00;93.29;101449.38;5090215;28;1077;-79
2023/09/28 05:20:01;;;;;;;;;;;;;;;15.96;93.25;101457.66;5078182;28;1077;-78
2023/09/28 05:22:27;;;;;;;;;;;;;;;15.92;93.45;101457.94;5091916;28;1190;-79
2023/09/28 05:24:53;;;;;;;;;;;;;;;15.90;93.17;101465.13;5080708;28;1365;-78
2023/09/28 05:27:18;;;;;;;;;;;;;;;15.84;93.81;101470.94;5084540;28;1236;-79
2023/09/28 05:29:44;;;;;;;;;;;;;;;15.81;93.71;101467.75;5087033;28;1965;-78
2023/09/28 05:32:10;;;;;;;;;;;;;;;15.77;93.48;101477.72;5088539;28;1163;-78
2023/09/28 05:34:35;;;;;;;;;;;;;;;15.74;93.53;101472.75;5094235;28;1310;-79
2023/09/28 05:37:00;;;;;;;;;;;;;;;15.72;93.71;101486.94;5085808;28;1261;-79
2023/09/28 05:39:25;;;;;;;;;;;;;;;15.70;93.90;101488.88;5084076;28;1256;-78
2023/09/28 05:41:50;;;;;;;;;;;;;;;15.67;93.88;101495.22;5083639;28;1224;-78
2023/09/28 05:44:16;;;;;;;;;;;;;;;15.63;94.25;101499.06;5091129;28;1326;-79
2023/09/28 05:46:41;;;;;;;;;;;;;;;15.59;94.15;101497.66;5091999;28;1436;-78
2023/09/28 05:49:06;;;;;;;;;;;;;;;15.56;94.67;101497.97;5079833;28;1969;-79
2023/09/28 05:51:32;;;;;;;;;;;;;;;15.52;94.59;101499.19;5084966;28;1222;-78
2023/09/28 05:53:57;;;;;;;;;;;;;;;15.50;94.68;101511.59;5079304;28;1222;-78
2023/09/28 05:56:22;;;;;;;;;;;;;;;15.47;94.62;101514.47;5088841;28;1206;-78
2023/09/28 05:58:48;;;;;;;;;;;;;;;15.46;94.45;101515.44;5084332;28;1573;-79
2023/09/28 06:01:15;;;;;;;;;;;;;;;15.43;94.56;101519.19;5086083;28;1234;-78
2023/09/28 06:03:41;;;;;;;;;;;;;;;15.40;94.72;101515.03;5083840;28;1258;-78
2023/09/28 06:06:17;;;;;;;;;;;;;;;15.37;95.39;101524.97;5078474;28;1263;-78
2023/09/28 06:08:43;;;;;;;;;;;;;;;15.36;95.11;101529.34;5082119;28;1952;-78
2023/09/28 06:11:15;;;;;;;;;;;;;;;15.34;95.57;101531.28;5076679;28;1450;-78
2023/09/28 06:13:41;;;;;;;;;;;;;;;15.33;95.68;101519.19;5081833;28;1266;-79
2023/09/28 06:16:06;;;;;;;;;;;;;;;15.33;95.71;101524.41;5077371;28;1366;-79
2023/09/28 06:18:32;;;;;;;;;;;;;;;15.31;95.40;101515.91;5081124;28;1381;-79
2023/09/28 06:20:57;;;;;;;;;;;;;;;15.33;95.48;101519.19;5076810;28;1305;-78
2023/09/28 06:23:22;;;;;;;;;;;;;;;15.31;95.69;101521.13;5078806;28;1080;-78
2023/09/28 06:25:47;;;;;;;;;;;;;;;15.29;95.29;101528.25;5087232;28;1190;-78
2023/09/28 06:28:12;;;;;;;;;;;;;;;15.30;95.59;101516.84;5083832;28;1248;-79
2023/09/28 06:30:38;;;;;;;;;;;;;;;15.29;95.31;101528.25;5093147;28;1961;-78
2023/09/28 06:33:03;;;;;;;;;;;;;;;15.32;95.69;101522.78;5093712;28;1204;-78
2023/09/28 06:35:28;;;;;;;;;;;;;;;15.34;95.24;101530.47;5081149;28;1320;-78
2023/09/28 06:37:53;;;;;;;;;;;;;;;15.36;95.08;101529.34;5086014;28;1148;-78
2023/09/28 06:40:19;;;;;;;;;;;;;;;15.36;95.30;101539.81;5076505;28;1511;-79
2023/09/28 06:42:44;;;;;;;;;;;;;;;15.35;95.42;101546.00;5086221;28;1128;-78
2023/09/28 06:45:11;;;;;;;;;;;;;;;15.38;95.13;101552.75;5093463;28;1241;-79
2023/09/28 06:47:36;;;;;;;;;;;;;;;15.37;95.56;101557.16;5088822;28;1246;-79
2023/09/28 06:50:04;;;;;;;;;;;;;;;15.38;95.23;101548.34;5089875;28;1901;-77
2023/09/28 06:52:29;;;;;;;;;;;;;;;15.38;95.21;101553.56;5085209;28;1508;-77
2023/09/28 06:54:54;;;;;;;;;;;;;;;15.42;95.55;101554.09;5088661;28;1308;-77
2023/09/28 06:57:23;;;;;;;;;;;;;;;15.43;95.42;101549.72;5082331;28;1508;-77
2023/09/28 06:59:48;;;;;;;;;;;;;;;15.46;95.46;101565.94;5081730;28;1289;-77
2023/09/28 07:02:14;;;;;;;;;;;;;;;15.50;95.28;101566.50;5079238;28;1191;-77
2023/09/28 07:04:39;;;;;;;;;;;;;;;15.50;95.16;101576.97;5086389;28;1483;-77
2023/09/28 07:07:05;;;;;;;;;;;;;;;15.52;95.19;101569.78;5094357;28;1177;-77
2023/09/28 07:09:30;;;;;;;;;;;;;;;15.54;95.49;101583.53;5089755;28;1902;-77
2023/09/28 07:11:55;;;;;;;;;;;;;;;15.57;95.19;101580.66;5093551;28;1148;-77
2023/09/28 07:14:21;;;;;;;;;;;;;;;15.60;95.53;101593.47;5088529;28;1183;-77
2023/09/28 07:16:47;;;;;;;;;;;;;;;15.62;95.23;101596.75;5085542;28;981;-77
2023/09/28 07:19:12;;;;;;;;;;;;;;;15.64;95.81;101593.06;5094548;28;1159;-77
2023/09/28 07:21:37;;;;;;;;;;;;;;;15.69;95.56;101595.25;5088811;28;1413;-77
2023/09/28 07:24:02;;;;;;;;;;;;;;;15.71;95.48;101590.72;5088146;28;1490;-77
2023/09/28 07:26:27;;;;;;;;;;;;;;;15.77;95.46;101579.72;5075883;28;1816;-78
2023/09/28 07:28:54;;;;;;;;;;;;;;;15.82;95.59;101572.25;5080104;28;1906;-77
2023/09/28 07:31:20;;;;;;;;;;;;;;;15.89;95.39;101578.59;5082183;28;1229;-77
2023/09/28 07:33:45;;;;;;;;;;;;;;;15.97;95.21;101584.91;5080497;28;1249;-77
2023/09/28 07:36:11;;;;;;;;;;;;;;;15.99;95.02;101585.56;5094879;28;1228;-77
2023/09/28 07:38:36;;;;;;;;;;;;;;;16.02;95.21;101574.84;5090730;28;1222;-77
2023/09/28 07:41:02;;;;;;;;;;;;;;;16.06;94.79;101590.13;5093359;28;1001;-77
2023/09/28 07:43:27;;;;;;;;;;;;;;;16.10;94.81;101598.47;5089940;28;1412;-77
2023/09/28 07:45:52;;;;;;;;;;;;;;;16.14;94.65;101598.06;5093037;28;1207;-77
2023/09/28 07:48:17;;;;;;;;;;;;;;;16.19;94.92;101608.09;5101172;28;1069;-78
2023/09/28 07:50:43;;;;;;;;;;;;;;;16.26;94.72;101621.44;5086105;28;2011;-77
2023/09/28 07:53:08;;;;;;;;;;;;;;;16.33;94.44;101623.34;5087808;28;1291;-78
2023/09/28 07:55:33;;;;;;;;;;;;;;;16.39;94.27;101628.00;5086133;28;1577;-77
2023/09/28 07:57:59;;;;;;;;;;;;;;;16.43;94.06;101624.13;5085481;28;1312;-77
2023/09/28 08:00:24;;;;;;;;;;;;;;;16.48;93.89;101630.75;5086991;28;1342;-77
2023/09/28 08:02:49;;;;;;;;;;;;;;;16.53;94.00;101633.75;5081859;28;1175;-77
2023/09/28 08:05:14;;;;;;;;;;;;;;;16.59;93.75;101634.00;5087008;28;1194;-78
2023/09/28 08:07:40;;;;;;;;;;;;;;;16.66;93.57;101629.00;5085408;28;1492;-77
2023/09/28 08:10:16;;;;;;;;;;;;;;;16.75;93.32;101632.59;5081188;28;1921;-77
2023/09/28 08:12:43;;;;;;;;;;;;;;;16.81;92.89;101635.47;5087782;28;1520;-77
2023/09/28 08:15:09;;;;;;;;;;;;;;;16.82;93.04;101634.47;5091700;28;1021;-77
2023/09/28 08:17:36;;;;;;;;;;;;;;;16.90;92.54;101642.41;5088053;28;1218;-78
2023/09/28 08:20:02;;;;;;;;;;;;;;;16.95;92.74;101634.13;5090984;28;1077;-77
2023/09/28 08:22:27;;;;;;;;;;;;;;;16.98;92.20;101634.66;5081847;28;1210;-78
2023/09/28 08:24:52;;;;;;;;;;;;;;;17.04;91.75;101637.69;5086782;28;1186;-78
2023/09/28 08:27:18;;;;;;;;;;;;;;;17.05;91.53;101660.28;5085993;28;1155;-78
2023/09/28 08:29:44;;;;;;;;;;;;;;;17.04;91.26;101658.63;5086591;28;1890;-78
2023/09/28 08:32:09;;;;;;;;;;;;;;;17.01;90.77;101651.06;5078558;28;1302;-78
2023/09/28 08:34:34;;;;;;;;;;;;;;;16.99;90.84;101636.31;5086404;28;1313;-77
2023/09/28 08:37:03;;;;;;;;;;;;;;;17.01;90.63;101643.19;5087214;28;1302;-77
2023/09/28 08:39:28;;;;;;;;;;;;;;;17.04;90.61;101658.63;5082743;28;1369;-78
2023/09/28 08:41:55;;;;;;;;;;;;;;;17.05;90.37;101652.44;5091053;28;1211;-78
2023/09/28 08:44:23;;;;;;;;;;;;;;;17.13;90.34;101642.00;5089553;28;1317;-77
2023/09/28 08:46:49;;;;;;;;;;;;;;;17.18;89.04;101655.50;5086993;28;1600;-78
2023/09/28 08:49:15;;;;;;;;;;;;;;;17.36;87.53;101664.22;5090182;28;1929;-77
2023/09/28 08:51:42;;;;;;;;;;;;;;;17.25;88.70;101693.25;5087829;28;1576;-77
2023/09/28 08:54:07;;;;;;;;;;;;;;;17.30;88.58;101680.53;5081411;28;1202;-78
2023/09/28 08:56:34;;;;;;;;;;;;;;;17.34;88.11;101671.41;5092156;28;1486;-78
2023/09/28 08:59:01;;;;;;;;;;;;;;;17.35;87.68;101678.28;5084576;28;1213;-77
2023/09/28 09:01:27;;;;;;;;;;;;;;;17.34;88.19;101663.53;5083479;28;1261;-78
2023/09/28 09:03:53;;;;;;;;;;;;;;;17.37;87.75;101676.34;5086210;28;1464;-77
2023/09/28 09:06:20;;;;;;;;;;;;;;;17.41;87.40;101682.94;5083488;28;1077;-78
2023/09/28 09:08:48;;;;;;;;;;;;;;;17.47;87.54;101681.53;5089873;28;1909;-78
2023/09/28 09:11:14;;;;;;;;;;;;;;;17.63;87.04;101675.63;5083231;28;1034;-77
2023/09/28 09:13:49;;;;;;;;;;;;;;;17.69;87.09;101681.06;5094479;28;1167;-77
2023/09/28 09:16:15;;;;;;;;;;;;;;;17.70;86.35;101666.16;5090299;28;1064;-78
2023/09/28 09:18:40;;;;;;;;;;;;;;;17.69;86.55;101690.75;5087456;28;1148;-76
2023/09/28 09:21:07;;;;;;;;;;;;;;;17.72;85.98;101686.06;5090141;28;1090;-79
2023/09/28 09:23:32;;;;;;;;;;;;;;;17.77;85.79;101677.72;5088772;28;1082;-78
2023/09/28 09:25:58;;;;;;;;;;;;;;;17.81;85.85;101681.69;5088935;28;1125;-77
2023/09/28 09:28:32;;;;;;;;;;;;;;;17.89;85.46;101680.94;5080735;28;1271;-77
2023/09/28 09:30:57;;;;;;;;;;;;;;;17.96;84.53;101688.06;5086964;28;1171;-77
2023/09/28 09:33:23;;;;;;;;;;;;;;;18.07;84.90;101696.69;5084556;28;1276;-77
2023/09/28 09:35:49;;;;;;;;;;;;;;;18.17;84.06;101684.25;5089817;28;1117;-77
2023/09/28 09:38:15;;;;;;;;;;;;;;;18.24;84.18;101690.56;5082103;28;1337;-77
2023/09/28 09:40:40;;;;;;;;;;;;;;;18.27;83.63;101690.25;5087836;28;1190;-78
2023/09/28 09:43:07;;;;;;;;;;;;;;;18.30;82.60;101687.31;5080585;28;1361;-78
2023/09/28 09:45:35;;;;;;;;;;;;;;;18.28;82.96;101686.63;5086612;28;1699;-77
2023/09/28 09:48:01;;;;;;;;;;;;;;;18.31;83.01;101691.59;5072896;28;1302;-77
2023/09/28 09:50:28;;;;;;;;;;;;;;;18.40;82.12;101679.31;5086878;28;1989;-77
2023/09/28 09:52:55;;;;;;;;;;;;;;;18.38;82.52;101679.47;5078663;28;1193;-77
2023/09/28 09:55:21;;;;;;;;;;;;;;;18.46;81.96;101679.50;5086067;28;1536;-77
2023/09/28 09:57:49;;;;;;;;;;;;;;;18.49;82.24;101684.47;5076217;28;1241;-78
2023/09/28 10:00:18;;;;;;;;;;;;;;;18.54;81.75;101682.19;5080379;28;1246;-78
2023/09/28 10:02:45;;;;;;;;;;;;;;;18.55;80.87;101683.03;5092115;28;1226;-78
2023/09/28 10:05:13;;;;;;;;;;;;;;;18.62;81.04;101683.22;5082002;28;1215;-77
2023/09/28 10:07:39;;;;;;;;;;;;;;;18.72;80.29;101686.59;5092604;28;1071;-77
2023/09/28 10:10:05;;;;;;;;;;;;;;;18.78;79.68;101693.84;5081016;28;1893;-77
2023/09/28 10:12:30;;;;;;;;;;;;;;;18.80;79.61;101686.63;5091411;28;1217;-78
2023/09/28 10:14:56;;;;;;;;;;;;;;;18.86;79.61;101677.28;5090135;28;1242;-77
2023/09/28 10:17:24;;;;;;;;;;;;;;;18.94;79.21;101682.56;5080034;28;1094;-78
2023/09/28 10:19:50;;;;;;;;;;;;;;;18.94;79.24;101678.13;5090782;28;1716;-78
2023/09/28 10:22:15;;;;;;;;;;;;;;;18.98;78.98;101678.63;5090437;28;1170;-78
2023/09/28 10:24:40;;;;;;;;;;;;;;;19.02;78.27;101675.53;5092245;28;1238;-77
2023/09/28 10:27:13;;;;;;;;;;;;;;;19.01;78.96;101679.13;5081246;28;1192;-78
2023/09/28 10:29:40;;;;;;;;;;;;;;;19.00;78.67;101674.88;5075789;28;1917;-77
2023/09/28 10:32:24;;;;;;;;;;;;;;;19.02;78.36;101665.00;5080350;28;1219;-77
2023/09/28 10:35:09;;;;;;;;;;;;;;;19.08;78.53;101667.00;5087389;28;1289;-77
2023/09/28 10:37:34;;;;;;;;;;;;;;;19.29;76.67;101665.75;5078431;28;1191;-77
2023/09/28 10:39:59;;;;;;;;;;;;;;;19.30;77.24;101670.00;5079505;28;1279;-78
2023/09/28 10:42:26;;;;;;;;;;;;;;;19.35;76.76;101680.88;5072685;28;1564;-77
2023/09/28 10:44:52;;;;;;;;;;;;;;;19.39;76.87;101682.22;5083114;28;1378;-78
2023/09/28 10:47:19;;;;;;;;;;;;;;;19.50;76.14;101689.78;5078310;28;1354;-78
2023/09/28 10:49:45;;;;;;;;;;;;;;;19.53;76.31;101694.72;5082377;28;1898;-77
2023/09/28 10:52:10;;;;;;;;;;;;;;;19.59;75.62;101691.47;5079522;28;1284;-77
2023/09/28 10:54:36;;;;;;;;;;;;;;;19.60;75.07;101694.91;5079683;28;1257;-77
2023/09/28 10:57:04;;;;;;;;;;;;;;;19.62;75.18;101693.78;5072734;28;1544;-77
2023/09/28 10:59:29;;;;;;;;;;;;;;;19.70;75.65;101689.50;5089531;28;1298;-77
2023/09/28 11:01:54;;;;;;;;;;;;;;;19.75;75.43;101703.00;5085042;28;1536;-78
2023/09/28 11:04:20;;;;;;;;;;;;;;;19.79;74.86;101701.69;5088410;28;1082;-77
2023/09/28 11:06:45;;;;;;;;;;;;;;;19.81;75.42;101703.16;5084741;28;1334;-78
2023/09/28 11:09:12;;;;;;;;;;;;;;;19.90;75.42;101706.63;5087820;28;1902;-78
2023/09/28 11:11:37;;;;;;;;;;;;;;;19.98;75.15;101709.25;5087534;28;955;-78
2023/09/28 11:14:04;;;;;;;;;;;;;;;20.02;73.75;101705.31;5080865;28;1588;-78
2023/09/28 11:16:30;;;;;;;;;;;;;;;19.95;73.62;101709.56;5079072;28;1230;-77
2023/09/28 11:18:56;;;;;;;;;;;;;;;19.89;73.11;101716.31;5074263;28;1208;-78
2023/09/28 11:21:21;;;;;;;;;;;;;;;19.82;73.56;101719.78;5079604;28;1186;-78
2023/09/28 11:23:48;;;;;;;;;;;;;;;19.77;73.25;101707.09;5086954;28;1264;-78
2023/09/28 11:26:14;;;;;;;;;;;;;;;19.72;73.91;101708.56;5083795;28;1052;-78
2023/09/28 11:28:40;;;;;;;;;;;;;;;19.73;73.75;101710.25;5083228;28;1964;-77
2023/09/28 11:31:09;;;;;;;;;;;;;;;19.79;73.91;101714.84;5080814;28;1250;-77
2023/09/28 11:33:35;;;;;;;;;;;;;;;19.80;73.63;101711.22;5086418;28;1238;-77
2023/09/28 11:36:01;;;;;;;;;;;;;;;19.86;74.42;101700.03;5077550;28;1322;-78
2023/09/28 11:38:26;;;;;;;;;;;;;;;19.95;73.81;101704.28;5083207;28;1227;-78
2023/09/28 11:40:55;;;;;;;;;;;;;;;20.02;73.23;101715.84;5087768;28;1261;-77
2023/09/28 11:43:20;;;;;;;;;;;;;;;20.02;73.45;101718.47;5077853;28;1212;-77
2023/09/28 11:45:47;;;;;;;;;;;;;;;19.99;73.01;101721.41;5081297;28;1096;-77
2023/09/28 11:48:15;;;;;;;;;;;;;;;19.94;72.40;101715.00;5084705;28;1229;-78
2023/09/28 11:50:41;;;;;;;;;;;;;;;19.88;72.83;101713.84;5076835;28;1898;-77
2023/09/28 11:53:10;;;;;;;;;;;;;;;19.84;72.86;101702.84;5085683;28;1264;-76
2023/09/28 11:55:35;;;;;;;;;;;;;;;19.81;73.16;101697.06;5085017;28;1167;-77
2023/09/28 11:58:02;;;;;;;;;;;;;;;19.83;73.43;101695.09;5091424;28;1247;-78
2023/09/28 12:00:27;;;;;;;;;;;;;;;19.82;72.76;101703.97;5084720;28;1301;-77
2023/09/28 12:02:52;;;;;;;;;;;;;;;19.79;73.17;101699.88;5077234;28;1207;-77
2023/09/28 12:05:18;;;;;;;;;;;;;;;19.78;73.26;101707.91;5090259;28;1278;-78
2023/09/28 12:07:43;;;;;;;;;;;;;;;19.86;72.78;101702.66;5080464;28;1242;-77
2023/09/28 12:10:11;;;;;;;;;;;;;;;19.84;73.04;101702.00;5086314;28;1968;-77
2023/09/28 12:12:38;;;;;;;;;;;;;;;19.83;73.30;101700.34;5091667;28;959;-77
2023/09/28 12:15:07;;;;;;;;;;;;;;;19.84;72.89;101702.00;5093681;28;1234;-78
2023/09/28 12:17:32;;;;;;;;;;;;;;;19.87;72.70;101696.41;5091073;28;1282;-79
2023/09/28 12:19:57;;;;;;;;;;;;;;;19.86;72.40;101694.78;5096134;28;1278;-77
2023/09/28 12:22:23;;;;;;;;;;;;;;;19.86;72.41;101694.78;5089368;28;1516;-76
2023/09/28 12:24:48;;;;;;;;;;;;;;;19.86;71.81;101684.25;5090475;28;1401;-77
2023/09/28 12:27:14;;;;;;;;;;;;;;;19.85;71.67;101687.88;5085941;28;1206;-78
2023/09/28 12:29:39;;;;;;;;;;;;;;;19.83;72.21;101689.81;5085319;28;1906;-78
2023/09/28 12:32:04;;;;;;;;;;;;;;;19.84;72.15;101689.69;5093321;28;1235;-78
2023/09/28 12:34:30;;;;;;;;;;;;;;;19.88;71.77;101698.06;5090163;28;1258;-78
2023/09/28 12:36:57;;;;;;;;;;;;;;;19.95;71.94;101688.50;5081479;28;1215;-78
2023/09/28 12:39:22;;;;;;;;;;;;;;;20.05;71.50;101689.16;5087483;28;1591;-78
2023/09/28 12:41:48;;;;;;;;;;;;;;;20.19;71.00;101697.38;5083140;28;1282;-78
2023/09/28 12:44:13;;;;;;;;;;;;;;;20.28;70.68;101689.28;5086386;28;1214;-78